sensor_id;sensor_type;location;lat;lon;timestamp;pressure;altitude;pressure_sealevel;temperature;humidity
24336;BME280;33098;52.400;16.880;2023-04-06T00:00:37;101395.88;;;1.84;55.72
24336;BME280;33098;52.400;16.880;2023-04-06T00:03:15;101396.97;;;1.83;56.02
24336;BME280;33098;52.400;16.880;2023-04-06T00:05:42;101394.78;;;1.79;55.93
24336;BME280;33098;52.400;16.880;2023-04-06T00:08:09;101396.05;;;1.77;56.10
24336;BME280;33098;52.400;16.880;2023-04-06T00:10:36;101399.61;;;1.82;56.23
24336;BME280;33098;52.400;16.880;2023-04-06T00:13:03;101395.98;;;1.87;56.35
24336;BME280;33098;52.400;16.880;2023-04-06T00:15:30;101395.82;;;1.86;56.34
24336;BME280;33098;52.400;16.880;2023-04-06T00:17:57;101399.11;;;1.81;56.12
24336;BME280;33098;52.400;16.880;2023-04-06T00:20:23;101394.20;;;1.69;56.28
24336;BME280;33098;52.400;16.880;2023-04-06T00:22:50;101389.97;;;1.69;56.57
24336;BME280;33098;52.400;16.880;2023-04-06T00:25:17;101390.81;;;1.76;56.68
24336;BME280;33098;52.400;16.880;2023-04-06T00:27:44;101390.73;;;1.74;56.65
24336;BME280;33098;52.400;16.880;2023-04-06T00:30:11;101392.55;;;1.71;56.77
24336;BME280;33098;52.400;16.880;2023-04-06T00:32:46;101389.34;;;1.66;57.01
24336;BME280;33098;52.400;16.880;2023-04-06T00:35:13;101389.68;;;1.53;56.87
24336;BME280;33098;52.400;16.880;2023-04-06T00:37:42;101390.33;;;1.49;56.88
24336;BME280;33098;52.400;16.880;2023-04-06T00:40:09;101385.30;;;1.47;57.17
24336;BME280;33098;52.400;16.880;2023-04-06T00:42:37;101384.48;;;1.45;57.24
24336;BME280;33098;52.400;16.880;2023-04-06T00:45:04;101385.88;;;1.44;57.36
24336;BME280;33098;52.400;16.880;2023-04-06T00:47:31;101383.55;;;1.40;57.25
24336;BME280;33098;52.400;16.880;2023-04-06T00:49:57;101386.34;;;1.47;57.42
24336;BME280;33098;52.400;16.880;2023-04-06T00:52:24;101378.77;;;1.49;57.42
24336;BME280;33098;52.400;16.880;2023-04-06T00:54:52;101380.43;;;1.46;57.38
24336;BME280;33098;52.400;16.880;2023-04-06T00:57:20;101384.29;;;1.45;57.69
24336;BME280;33098;52.400;16.880;2023-04-06T00:59:48;101386.83;;;1.42;57.81
24336;BME280;33098;52.400;16.880;2023-04-06T01:02:15;101387.13;;;1.36;57.66
24336;BME280;33098;52.400;16.880;2023-04-06T01:04:46;101387.20;;;1.34;57.67
24336;BME280;33098;52.400;16.880;2023-04-06T01:07:21;101386.27;;;1.36;57.67
24336;BME280;33098;52.400;16.880;2023-04-06T01:10:01;101387.89;;;1.35;57.77
24336;BME280;33098;52.400;16.880;2023-04-06T01:12:29;101386.83;;;1.35;57.80
24336;BME280;33098;52.400;16.880;2023-04-06T01:14:56;101388.39;;;1.35;57.89
24336;BME280;33098;52.400;16.880;2023-04-06T01:17:23;101389.98;;;1.41;58.13
24336;BME280;33098;52.400;16.880;2023-04-06T01:19:51;101387.97;;;1.45;58.19
24336;BME280;33098;52.400;16.880;2023-04-06T01:22:24;101382.66;;;1.47;58.27
24336;BME280;33098;52.400;16.880;2023-04-06T01:24:56;101388.20;;;1.50;58.15
24336;BME280;33098;52.400;16.880;2023-04-06T01:27:34;101386.41;;;1.58;58.32
24336;BME280;33098;52.400;16.880;2023-04-06T01:30:01;101383.90;;;1.68;58.40
24336;BME280;33098;52.400;16.880;2023-04-06T01:33:03;101386.77;;;1.65;58.14
24336;BME280;33098;52.400;16.880;2023-04-06T01:35:50;101387.77;;;1.60;58.22
24336;BME280;33098;52.400;16.880;2023-04-06T01:38:19;101386.29;;;1.63;58.28
24336;BME280;33098;52.400;16.880;2023-04-06T01:40:50;101388.73;;;1.63;58.22
24336;BME280;33098;52.400;16.880;2023-04-06T01:43:18;101383.39;;;1.60;58.20
24336;BME280;33098;52.400;16.880;2023-04-06T01:45:58;101385.20;;;1.51;58.18
24336;BME280;33098;52.400;16.880;2023-04-06T01:48:28;101386.77;;;1.44;58.24
24336;BME280;33098;52.400;16.880;2023-04-06T01:50:55;101381.26;;;1.48;58.45
24336;BME280;33098;52.400;16.880;2023-04-06T01:53:25;101377.71;;;1.49;58.47
24336;BME280;33098;52.400;16.880;2023-04-06T01:55:53;101381.52;;;1.51;58.63
24336;BME280;33098;52.400;16.880;2023-04-06T01:58:24;101378.20;;;1.51;58.74
24336;BME280;33098;52.400;16.880;2023-04-06T02:00:51;101383.77;;;1.45;58.55
24336;BME280;33098;52.400;16.880;2023-04-06T02:03:18;101391.84;;;1.44;58.61
24336;BME280;33098;52.400;16.880;2023-04-06T02:05:45;101388.02;;;1.43;58.68
24336;BME280;33098;52.400;16.880;2023-04-06T02:08:18;101382.80;;;1.42;58.67
24336;BME280;33098;52.400;16.880;2023-04-06T02:10:46;101385.13;;;1.40;58.77
24336;BME280;33098;52.400;16.880;2023-04-06T02:13:20;101384.95;;;1.47;58.75
24336;BME280;33098;52.400;16.880;2023-04-06T02:15:49;101381.17;;;1.51;58.89
24336;BME280;33098;52.400;16.880;2023-04-06T02:18:16;101379.95;;;1.44;58.80
24336;BME280;33098;52.400;16.880;2023-04-06T02:20:44;101379.30;;;1.42;58.94
24336;BME280;33098;52.400;16.880;2023-04-06T02:23:12;101378.27;;;1.48;58.99
24336;BME280;33098;52.400;16.880;2023-04-06T02:25:41;101375.98;;;1.48;59.08
24336;BME280;33098;52.400;16.880;2023-04-06T02:28:11;101374.26;;;1.41;59.02
24336;BME280;33098;52.400;16.880;2023-04-06T02:30:39;101376.20;;;1.40;59.05
24336;BME280;33098;52.400;16.880;2023-04-06T02:33:06;101377.80;;;1.39;59.12
24336;BME280;33098;52.400;16.880;2023-04-06T02:35:39;101379.36;;;1.40;59.02
24336;BME280;33098;52.400;16.880;2023-04-06T02:38:07;101379.92;;;1.38;59.02
24336;BME280;33098;52.400;16.880;2023-04-06T02:40:34;101382.36;;;1.39;59.18
24336;BME280;33098;52.400;16.880;2023-04-06T02:43:06;101382.96;;;1.35;59.34
24336;BME280;33098;52.400;16.880;2023-04-06T02:45:32;101384.90;;;1.35;59.33
24336;BME280;33098;52.400;16.880;2023-04-06T02:48:00;101384.69;;;1.36;59.48
24336;BME280;33098;52.400;16.880;2023-04-06T02:50:27;101385.72;;;1.37;59.36
24336;BME280;33098;52.400;16.880;2023-04-06T02:52:58;101389.20;;;1.38;59.54
24336;BME280;33098;52.400;16.880;2023-04-06T02:55:26;101392.45;;;1.34;59.47
24336;BME280;33098;52.400;16.880;2023-04-06T02:57:53;101392.09;;;1.34;59.51
24336;BME280;33098;52.400;16.880;2023-04-06T03:00:26;101396.95;;;1.35;59.58
24336;BME280;33098;52.400;16.880;2023-04-06T03:02:53;101390.48;;;1.35;59.74
24336;BME280;33098;52.400;16.880;2023-04-06T03:05:20;101399.48;;;1.33;59.64
24336;BME280;33098;52.400;16.880;2023-04-06T03:07:47;101400.98;;;1.35;59.70
24336;BME280;33098;52.400;16.880;2023-04-06T03:10:19;101403.33;;;1.39;59.66
24336;BME280;33098;52.400;16.880;2023-04-06T03:12:47;101403.30;;;1.34;59.59
24336;BME280;33098;52.400;16.880;2023-04-06T03:15:22;101403.89;;;1.37;59.88
24336;BME280;33098;52.400;16.880;2023-04-06T03:17:52;101401.64;;;1.30;59.74
24336;BME280;33098;52.400;16.880;2023-04-06T03:20:30;101404.84;;;1.21;59.75
24336;BME280;33098;52.400;16.880;2023-04-06T03:22:57;101405.50;;;1.15;59.74
24336;BME280;33098;52.400;16.880;2023-04-06T03:25:26;101404.27;;;1.15;59.82
24336;BME280;33098;52.400;16.880;2023-04-06T03:27:54;101406.34;;;1.17;60.04
24336;BME280;33098;52.400;16.880;2023-04-06T03:30:21;101409.71;;;1.14;59.94
24336;BME280;33098;52.400;16.880;2023-04-06T03:32:48;101411.30;;;1.06;59.93
24336;BME280;33098;52.400;16.880;2023-04-06T03:35:16;101405.68;;;1.00;60.10
24336;BME280;33098;52.400;16.880;2023-04-06T03:37:42;101406.67;;;0.95;60.17
24336;BME280;33098;52.400;16.880;2023-04-06T03:40:10;101414.11;;;0.91;60.27
24336;BME280;33098;52.400;16.880;2023-04-06T03:42:37;101415.64;;;0.92;60.54
24336;BME280;33098;52.400;16.880;2023-04-06T03:45:09;101414.07;;;0.92;60.44
24336;BME280;33098;52.400;16.880;2023-04-06T03:47:36;101415.73;;;0.81;60.44
24336;BME280;33098;52.400;16.880;2023-04-06T03:50:05;101423.91;;;0.74;60.58
24336;BME280;33098;52.400;16.880;2023-04-06T03:52:34;101423.31;;;0.70;60.58
24336;BME280;33098;52.400;16.880;2023-04-06T03:55:04;101423.31;;;0.70;60.81
24336;BME280;33098;52.400;16.880;2023-04-06T03:57:31;101421.29;;;0.58;60.76
24336;BME280;33098;52.400;16.880;2023-04-06T03:59:58;101420.17;;;0.53;60.92
24336;BME280;33098;52.400;16.880;2023-04-06T04:02:39;101424.05;;;0.60;61.12
24336;BME280;33098;52.400;16.880;2023-04-06T04:05:06;101424.89;;;0.61;61.11
24336;BME280;33098;52.400;16.880;2023-04-06T04:07:33;101424.35;;;0.53;61.07
24336;BME280;33098;52.400;16.880;2023-04-06T04:10:00;101426.33;;;0.42;61.18
24336;BME280;33098;52.400;16.880;2023-04-06T04:12:27;101424.77;;;0.33;61.34
24336;BME280;33098;52.400;16.880;2023-04-06T04:14:54;101421.67;;;0.38;61.40
24336;BME280;33098;52.400;16.880;2023-04-06T04:17:24;101423.51;;;0.43;61.50
24336;BME280;33098;52.400;16.880;2023-04-06T04:19:51;101421.25;;;0.43;61.45
24336;BME280;33098;52.400;16.880;2023-04-06T04:22:18;101421.65;;;0.32;61.46
24336;BME280;33098;52.400;16.880;2023-04-06T04:24:44;101422.27;;;0.27;61.58
24336;BME280;33098;52.400;16.880;2023-04-06T04:27:11;101427.70;;;0.27;61.79
24336;BME280;33098;52.400;16.880;2023-04-06T04:29:41;101424.98;;;0.31;61.76
24336;BME280;33098;52.400;16.880;2023-04-06T04:32:10;101428.48;;;0.31;61.78
24336;BME280;33098;52.400;16.880;2023-04-06T04:34:38;101427.58;;;0.32;61.89
24336;BME280;33098;52.400;16.880;2023-04-06T04:37:08;101427.60;;;0.31;61.92
24336;BME280;33098;52.400;16.880;2023-04-06T04:39:53;101428.89;;;0.37;62.13
24336;BME280;33098;52.400;16.880;2023-04-06T04:42:22;101428.55;;;0.45;62.12
24336;BME280;33098;52.400;16.880;2023-04-06T04:44:51;101430.45;;;0.46;61.94
24336;BME280;33098;52.400;16.880;2023-04-06T04:47:26;101431.23;;;0.42;61.92
24336;BME280;33098;52.400;16.880;2023-04-06T04:49:54;101436.84;;;0.41;62.02
24336;BME280;33098;52.400;16.880;2023-04-06T04:52:22;101436.19;;;0.47;62.28
24336;BME280;33098;52.400;16.880;2023-04-06T04:54:57;101437.39;;;0.56;62.48
24336;BME280;33098;52.400;16.880;2023-04-06T04:57:27;101433.41;;;0.55;62.31
24336;BME280;33098;52.400;16.880;2023-04-06T04:59:54;101431.95;;;0.58;62.46
24336;BME280;33098;52.400;16.880;2023-04-06T05:02:23;101435.14;;;0.63;62.63
24336;BME280;33098;52.400;16.880;2023-04-06T05:05:19;101436.37;;;0.72;62.75
24336;BME280;33098;52.400;16.880;2023-04-06T05:07:47;101440.27;;;0.76;62.56
24336;BME280;33098;52.400;16.880;2023-04-06T05:10:22;101444.21;;;0.81;62.63
24336;BME280;33098;52.400;16.880;2023-04-06T05:12:55;101440.55;;;0.89;62.65
24336;BME280;33098;52.400;16.880;2023-04-06T05:15:23;101443.62;;;0.99;62.64
24336;BME280;33098;52.400;16.880;2023-04-06T05:17:53;101438.09;;;1.11;62.67
24336;BME280;33098;52.400;16.880;2023-04-06T05:20:24;101443.55;;;1.26;62.64
24336;BME280;33098;52.400;16.880;2023-04-06T05:22:53;101445.19;;;1.37;62.57
24336;BME280;33098;52.400;16.880;2023-04-06T05:25:20;101445.87;;;1.52;62.58
24336;BME280;33098;52.400;16.880;2023-04-06T05:27:52;101451.87;;;1.64;62.33
24336;BME280;33098;52.400;16.880;2023-04-06T05:30:31;101449.70;;;1.74;62.07
24336;BME280;33098;52.400;16.880;2023-04-06T05:33:02;101454.68;;;1.84;61.96
24336;BME280;33098;52.400;16.880;2023-04-06T05:35:35;101454.73;;;1.89;61.93
24336;BME280;33098;52.400;16.880;2023-04-06T05:38:08;101457.07;;;2.00;61.75
24336;BME280;33098;52.400;16.880;2023-04-06T05:40:39;101456.66;;;2.09;61.74
24336;BME280;33098;52.400;16.880;2023-04-06T05:43:08;101456.36;;;2.20;61.54
24336;BME280;33098;52.400;16.880;2023-04-06T05:45:36;101451.52;;;2.31;61.52
24336;BME280;33098;52.400;16.880;2023-04-06T05:48:05;101452.83;;;2.40;61.28
24336;BME280;33098;52.400;16.880;2023-04-06T05:50:34;101452.69;;;2.45;61.18
24336;BME280;33098;52.400;16.880;2023-04-06T05:53:03;101454.15;;;2.55;61.05
24336;BME280;33098;52.400;16.880;2023-04-06T05:55:37;101450.77;;;2.63;60.95
24336;BME280;33098;52.400;16.880;2023-04-06T05:58:15;101446.69;;;2.71;60.68
24336;BME280;33098;52.400;16.880;2023-04-06T06:00:44;101446.91;;;2.81;60.76
24336;BME280;33098;52.400;16.880;2023-04-06T06:03:14;101441.45;;;2.88;60.48
24336;BME280;33098;52.400;16.880;2023-04-06T06:05:42;101442.64;;;3.00;60.63
24336;BME280;33098;52.400;16.880;2023-04-06T06:08:14;101439.29;;;3.01;60.31
24336;BME280;33098;52.400;16.880;2023-04-06T06:10:41;101443.13;;;3.07;60.26
24336;BME280;33098;52.400;16.880;2023-04-06T06:13:12;101442.79;;;3.18;60.34
24336;BME280;33098;52.400;16.880;2023-04-06T06:15:39;101440.29;;;3.19;59.96
24336;BME280;33098;52.400;16.880;2023-04-06T06:18:07;101441.44;;;3.22;59.72
24336;BME280;33098;52.400;16.880;2023-04-06T06:20:38;101441.04;;;3.24;59.90
24336;BME280;33098;52.400;16.880;2023-04-06T06:23:05;101441.54;;;3.30;59.83
24336;BME280;33098;52.400;16.880;2023-04-06T06:25:35;101442.56;;;3.42;60.03
24336;BME280;33098;52.400;16.880;2023-04-06T06:28:03;101440.88;;;3.56;59.93
24336;BME280;33098;52.400;16.880;2023-04-06T06:30:33;101442.37;;;3.58;59.49
24336;BME280;33098;52.400;16.880;2023-04-06T06:33:04;101440.95;;;3.58;59.37
24336;BME280;33098;52.400;16.880;2023-04-06T06:35:31;101439.11;;;3.67;59.45
24336;BME280;33098;52.400;16.880;2023-04-06T06:38:00;101442.18;;;3.69;59.37
24336;BME280;33098;52.400;16.880;2023-04-06T06:40:27;101447.59;;;3.81;59.22
24336;BME280;33098;52.400;16.880;2023-04-06T06:42:55;101450.55;;;3.91;59.11
24336;BME280;33098;52.400;16.880;2023-04-06T06:45:50;101452.25;;;4.03;58.97
24336;BME280;33098;52.400;16.880;2023-04-06T06:48:19;101450.75;;;4.11;58.65
24336;BME280;33098;52.400;16.880;2023-04-06T06:50:48;101446.29;;;4.13;58.41
24336;BME280;33098;52.400;16.880;2023-04-06T06:53:19;101448.84;;;4.15;58.34
24336;BME280;33098;52.400;16.880;2023-04-06T06:55:46;101456.48;;;4.22;58.41
24336;BME280;33098;52.400;16.880;2023-04-06T06:58:19;101452.23;;;4.34;58.45
24336;BME280;33098;52.400;16.880;2023-04-06T07:00:50;101452.08;;;4.43;58.17
24336;BME280;33098;52.400;16.880;2023-04-06T07:03:19;101452.09;;;4.52;58.21
24336;BME280;33098;52.400;16.880;2023-04-06T07:05:46;101454.71;;;4.62;58.13
24336;BME280;33098;52.400;16.880;2023-04-06T07:08:20;101453.34;;;4.66;57.75
24336;BME280;33098;52.400;16.880;2023-04-06T07:10:49;101450.94;;;4.64;57.25
24336;BME280;33098;52.400;16.880;2023-04-06T07:13:19;101448.84;;;4.68;57.37
24336;BME280;33098;52.400;16.880;2023-04-06T07:15:50;101449.13;;;4.75;57.24
24336;BME280;33098;52.400;16.880;2023-04-06T07:18:18;101453.56;;;4.87;57.44
24336;BME280;33098;52.400;16.880;2023-04-06T07:20:50;101451.82;;;4.96;57.20
24336;BME280;33098;52.400;16.880;2023-04-06T07:23:18;101446.93;;;5.04;57.20
24336;BME280;33098;52.400;16.880;2023-04-06T07:25:46;101449.59;;;5.08;57.06
24336;BME280;33098;52.400;16.880;2023-04-06T07:28:14;101442.05;;;5.17;56.84
24336;BME280;33098;52.400;16.880;2023-04-06T07:30:51;101446.60;;;5.21;56.40
24336;BME280;33098;52.400;16.880;2023-04-06T07:33:22;101449.19;;;5.15;55.89
24336;BME280;33098;52.400;16.880;2023-04-06T07:35:50;101450.98;;;5.14;56.00
24336;BME280;33098;52.400;16.880;2023-04-06T07:38:18;101446.84;;;5.11;55.14
24336;BME280;33098;52.400;16.880;2023-04-06T07:40:46;101451.19;;;5.08;55.37
24336;BME280;33098;52.400;16.880;2023-04-06T07:43:14;101449.29;;;5.20;55.61
24336;BME280;33098;52.400;16.880;2023-04-06T07:45:45;101448.36;;;5.30;55.70
24336;BME280;33098;52.400;16.880;2023-04-06T07:48:13;101443.02;;;5.32;55.13
24336;BME280;33098;52.400;16.880;2023-04-06T07:50:41;101445.36;;;5.27;54.78
24336;BME280;33098;52.400;16.880;2023-04-06T07:53:09;101448.89;;;5.26;54.65
24336;BME280;33098;52.400;16.880;2023-04-06T07:55:37;101452.66;;;5.24;54.25
24336;BME280;33098;52.400;16.880;2023-04-06T07:58:04;101448.39;;;5.25;54.35
24336;BME280;33098;52.400;16.880;2023-04-06T08:00:31;101444.79;;;5.27;53.84
24336;BME280;33098;52.400;16.880;2023-04-06T08:03:01;101450.29;;;5.26;53.79
24336;BME280;33098;52.400;16.880;2023-04-06T08:05:32;101446.49;;;5.37;53.95
24336;BME280;33098;52.400;16.880;2023-04-06T08:08:02;101452.55;;;5.53;53.97
24336;BME280;33098;52.400;16.880;2023-04-06T08:10:30;101452.76;;;5.61;53.82
24336;BME280;33098;52.400;16.880;2023-04-06T08:12:57;101450.10;;;5.53;53.01
24336;BME280;33098;52.400;16.880;2023-04-06T08:15:28;101446.09;;;5.51;53.31
24336;BME280;33098;52.400;16.880;2023-04-06T08:17:55;101446.77;;;5.57;53.45
24336;BME280;33098;52.400;16.880;2023-04-06T08:20:23;101446.40;;;5.69;53.80
24336;BME280;33098;52.400;16.880;2023-04-06T08:22:50;101443.13;;;5.81;53.53
24336;BME280;33098;52.400;16.880;2023-04-06T08:25:17;101441.27;;;5.83;53.20
24336;BME280;33098;52.400;16.880;2023-04-06T08:27:44;101435.40;;;5.88;53.26
24336;BME280;33098;52.400;16.880;2023-04-06T08:30:14;101437.60;;;5.86;53.03
24336;BME280;33098;52.400;16.880;2023-04-06T08:32:43;101440.84;;;5.76;52.70
24336;BME280;33098;52.400;16.880;2023-04-06T08:35:11;101443.54;;;5.83;53.03
24336;BME280;33098;52.400;16.880;2023-04-06T08:37:39;101439.51;;;5.95;53.11
24336;BME280;33098;52.400;16.880;2023-04-06T08:40:06;101435.94;;;6.00;53.07
24336;BME280;33098;52.400;16.880;2023-04-06T08:42:40;101431.30;;;6.10;52.87
24336;BME280;33098;52.400;16.880;2023-04-06T08:45:09;101433.35;;;6.20;52.91
24336;BME280;33098;52.400;16.880;2023-04-06T08:47:36;101433.98;;;6.29;52.85
24336;BME280;33098;52.400;16.880;2023-04-06T08:50:03;101431.00;;;6.37;52.73
24336;BME280;33098;52.400;16.880;2023-04-06T08:52:32;101433.50;;;6.44;52.35
24336;BME280;33098;52.400;16.880;2023-04-06T08:55:01;101430.89;;;6.51;52.04
24336;BME280;33098;52.400;16.880;2023-04-06T08:57:31;101428.73;;;6.59;52.17
24336;BME280;33098;52.400;16.880;2023-04-06T09:00:00;101429.83;;;6.70;52.06
24336;BME280;33098;52.400;16.880;2023-04-06T09:02:28;101428.13;;;6.80;52.14
24336;BME280;33098;52.400;16.880;2023-04-06T09:04:57;101430.47;;;6.91;52.02
24336;BME280;33098;52.400;16.880;2023-04-06T09:07:28;101428.03;;;6.97;51.86
24336;BME280;33098;52.400;16.880;2023-04-06T09:09:56;101428.89;;;7.01;51.48
24336;BME280;33098;52.400;16.880;2023-04-06T09:12:32;101425.35;;;7.01;51.48
24336;BME280;33098;52.400;16.880;2023-04-06T09:15:01;101423.90;;;6.99;51.29
24336;BME280;33098;52.400;16.880;2023-04-06T09:17:32;101424.02;;;7.04;51.24
24336;BME280;33098;52.400;16.880;2023-04-06T09:20:03;101417.40;;;7.09;51.09
24336;BME280;33098;52.400;16.880;2023-04-06T09:22:38;101413.41;;;7.12;50.88
24336;BME280;33098;52.400;16.880;2023-04-06T09:25:08;101414.85;;;7.15;50.91
24336;BME280;33098;52.400;16.880;2023-04-06T09:27:37;101412.33;;;7.19;50.81
24336;BME280;33098;52.400;16.880;2023-04-06T09:30:09;101415.52;;;7.27;50.85
24336;BME280;33098;52.400;16.880;2023-04-06T09:32:51;101414.15;;;7.40;50.82
24336;BME280;33098;52.400;16.880;2023-04-06T09:35:22;101411.40;;;7.52;50.71
24336;BME280;33098;52.400;16.880;2023-04-06T09:37:52;101411.02;;;7.70;50.64
24336;BME280;33098;52.400;16.880;2023-04-06T09:40:22;101412.10;;;7.84;50.40
24336;BME280;33098;52.400;16.880;2023-04-06T09:42:50;101404.00;;;7.97;50.27
24336;BME280;33098;52.400;16.880;2023-04-06T09:45:18;101411.05;;;8.08;50.07
24336;BME280;33098;52.400;16.880;2023-04-06T09:47:45;101407.84;;;8.12;49.65
24336;BME280;33098;52.400;16.880;2023-04-06T09:50:14;101406.23;;;8.09;48.91
24336;BME280;33098;52.400;16.880;2023-04-06T09:52:50;101402.02;;;8.11;49.22
24336;BME280;33098;52.400;16.880;2023-04-06T09:55:23;101402.06;;;8.24;49.33
24336;BME280;33098;52.400;16.880;2023-04-06T09:58:03;101398.36;;;8.33;48.31
24336;BME280;33098;52.400;16.880;2023-04-06T10:00:42;101400.30;;;8.30;48.13
24336;BME280;33098;52.400;16.880;2023-04-06T10:03:40;101401.25;;;8.23;48.24
24336;BME280;33098;52.400;16.880;2023-04-06T10:06:13;101395.20;;;8.30;48.49
24336;BME280;33098;52.400;16.880;2023-04-06T10:08:41;101391.11;;;8.47;48.57
24336;BME280;33098;52.400;16.880;2023-04-06T10:11:09;101398.04;;;8.59;48.50
24336;BME280;33098;52.400;16.880;2023-04-06T10:13:40;101396.97;;;8.63;48.25
24336;BME280;33098;52.400;16.880;2023-04-06T10:16:08;101390.29;;;8.65;48.14
24336;BME280;33098;52.400;16.880;2023-04-06T10:18:39;101391.05;;;8.81;48.18
24336;BME280;33098;52.400;16.880;2023-04-06T10:21:11;101391.77;;;8.96;48.15
24336;BME280;33098;52.400;16.880;2023-04-06T10:23:46;101382.83;;;9.07;47.99
24336;BME280;33098;52.400;16.880;2023-04-06T10:26:16;101381.62;;;9.16;47.83
24336;BME280;33098;52.400;16.880;2023-04-06T10:28:45;101386.60;;;9.28;47.87
24336;BME280;33098;52.400;16.880;2023-04-06T10:31:13;101377.52;;;9.41;47.60
24336;BME280;33098;52.400;16.880;2023-04-06T10:33:41;101368.89;;;9.58;47.57
24336;BME280;33098;52.400;16.880;2023-04-06T10:36:23;101369.27;;;9.67;47.31
24336;BME280;33098;52.400;16.880;2023-04-06T10:39:00;101372.93;;;9.71;47.29
24336;BME280;33098;52.400;16.880;2023-04-06T10:41:45;101367.44;;;9.85;47.18
24336;BME280;33098;52.400;16.880;2023-04-06T10:44:22;101364.00;;;10.07;47.10
24336;BME280;33098;52.400;16.880;2023-04-06T10:46:56;101366.14;;;10.18;46.82
24336;BME280;33098;52.400;16.880;2023-04-06T10:49:27;101363.53;;;10.17;46.48
24336;BME280;33098;52.400;16.880;2023-04-06T10:51:54;101360.61;;;10.30;46.52
24336;BME280;33098;52.400;16.880;2023-04-06T10:54:24;101361.84;;;10.42;46.24
24336;BME280;33098;52.400;16.880;2023-04-06T10:56:51;101362.70;;;10.54;46.19
24336;BME280;33098;52.400;16.880;2023-04-06T10:59:21;101357.66;;;10.74;46.23
24336;BME280;33098;52.400;16.880;2023-04-06T11:01:48;101358.02;;;10.88;45.98
24336;BME280;33098;52.400;16.880;2023-04-06T11:04:20;101354.20;;;11.06;45.78
24336;BME280;33098;52.400;16.880;2023-04-06T11:06:49;101351.64;;;11.20;45.49
24336;BME280;33098;52.400;16.880;2023-04-06T11:09:30;101346.54;;;11.33;45.31
24336;BME280;33098;52.400;16.880;2023-04-06T11:12:06;101341.34;;;11.44;45.06
24336;BME280;33098;52.400;16.880;2023-04-06T11:14:34;101345.25;;;11.54;44.92
24336;BME280;33098;52.400;16.880;2023-04-06T11:17:03;101345.07;;;11.65;44.64
24336;BME280;33098;52.400;16.880;2023-04-06T11:19:31;101340.72;;;11.74;44.64
24336;BME280;33098;52.400;16.880;2023-04-06T11:22:08;101338.20;;;11.85;44.42
24336;BME280;33098;52.400;16.880;2023-04-06T11:24:41;101335.29;;;11.90;44.19
24336;BME280;33098;52.400;16.880;2023-04-06T11:27:08;101339.02;;;11.99;43.98
24336;BME280;33098;52.400;16.880;2023-04-06T11:29:38;101328.33;;;12.17;43.90
24336;BME280;33098;52.400;16.880;2023-04-06T11:32:09;101326.82;;;12.36;43.90
24336;BME280;33098;52.400;16.880;2023-04-06T11:34:39;101327.15;;;12.53;43.88
24336;BME280;33098;52.400;16.880;2023-04-06T11:37:09;101326.10;;;12.65;43.65
24336;BME280;33098;52.400;16.880;2023-04-06T11:39:51;101322.03;;;12.82;43.65
24336;BME280;33098;52.400;16.880;2023-04-06T11:42:27;101322.15;;;12.97;43.29
24336;BME280;33098;52.400;16.880;2023-04-06T11:44:58;101322.66;;;13.02;42.86
24336;BME280;33098;52.400;16.880;2023-04-06T11:47:33;101312.80;;;13.17;42.92
24336;BME280;33098;52.400;16.880;2023-04-06T11:50:11;101304.64;;;13.29;42.53
24336;BME280;33098;52.400;16.880;2023-04-06T11:52:40;101303.96;;;13.45;42.56
24336;BME280;33098;52.400;16.880;2023-04-06T11:55:18;101301.44;;;13.57;42.60
24336;BME280;33098;52.400;16.880;2023-04-06T11:57:46;101301.10;;;13.70;42.42
24336;BME280;33098;52.400;16.880;2023-04-06T12:00:14;101305.54;;;13.86;42.31
24336;BME280;33098;52.400;16.880;2023-04-06T12:02:49;101299.30;;;13.98;42.05
24336;BME280;33098;52.400;16.880;2023-04-06T12:05:17;101297.45;;;14.17;42.00
24336;BME280;33098;52.400;16.880;2023-04-06T12:07:43;101298.54;;;14.34;41.70
24336;BME280;33098;52.400;16.880;2023-04-06T12:10:11;101294.22;;;14.52;41.22
24336;BME280;33098;52.400;16.880;2023-04-06T12:12:40;101288.17;;;14.70;41.28
24336;BME280;33098;52.400;16.880;2023-04-06T12:15:08;101289.05;;;14.87;40.97
24336;BME280;33098;52.400;16.880;2023-04-06T12:17:35;101286.06;;;15.00;40.69
24336;BME280;33098;52.400;16.880;2023-04-06T12:20:03;101291.02;;;14.83;40.22
24336;BME280;33098;52.400;16.880;2023-04-06T12:22:51;101286.05;;;14.72;40.28
24336;BME280;33098;52.400;16.880;2023-04-06T12:25:18;101285.55;;;14.78;40.25
24336;BME280;33098;52.400;16.880;2023-04-06T12:27:45;101282.27;;;14.88;40.35
24336;BME280;33098;52.400;16.880;2023-04-06T12:30:13;101279.65;;;15.00;40.11
24336;BME280;33098;52.400;16.880;2023-04-06T12:32:40;101276.71;;;15.07;39.85
24336;BME280;33098;52.400;16.880;2023-04-06T12:35:08;101268.55;;;15.21;39.85
24336;BME280;33098;52.400;16.880;2023-04-06T12:37:35;101265.84;;;15.36;39.53
24336;BME280;33098;52.400;16.880;2023-04-06T12:40:20;101268.11;;;15.53;39.46
24336;BME280;33098;52.400;16.880;2023-04-06T12:42:47;101263.08;;;15.81;39.28
24336;BME280;33098;52.400;16.880;2023-04-06T12:45:17;101265.23;;;16.05;39.26
24336;BME280;33098;52.400;16.880;2023-04-06T12:47:46;101260.90;;;16.16;39.08
24336;BME280;33098;52.400;16.880;2023-04-06T12:50:13;101260.65;;;16.16;38.77
24336;BME280;33098;52.400;16.880;2023-04-06T12:52:43;101258.16;;;16.16;38.63
24336;BME280;33098;52.400;16.880;2023-04-06T12:55:15;101254.17;;;16.19;38.52
24336;BME280;33098;52.400;16.880;2023-04-06T12:57:42;101254.04;;;16.33;38.44
24336;BME280;33098;52.400;16.880;2023-04-06T13:00:12;101254.20;;;16.48;38.30
24336;BME280;33098;52.400;16.880;2023-04-06T13:02:40;101246.14;;;16.64;38.24